UKHH/HRK METAR and TAF weather

Enter ICAO airport designator
Station Type Date Time Source
UKHH METAR 2022/02/24 18:30 UTC NOAA

UKHH 241830Z /////MPS //// NSC 01/M04 Q1024 NOSIG


Station Type Date Time Source
UKHH Decoded METAR 2022/02/24 18:30 UTC NOAA

Kharkiv, Ukraine (UKHH) 49-58N 036-08E 155M
Feb 24, 2022 - 01:30 PM EST / 2022.02.24 1830 UTC
Temperature: 33 F (1 C)
Dew Point: 24 F (-4 C)
Relative Humidity: 69%
Pressure (altimeter): 30.24 in. Hg (1024 hPa)
ob: UKHH 241830Z /////MPS //// NSC 01/M04 Q1024 NOSIG
cycle: 18

Station Type Date Time Source
UKHH TAF 2022/02/24 06:24 UTC NOAA

TAF TAF UKHH 240507Z 2406/2506 35003MPS 6000 BKN015 TX05/2412Z TNM03/2504Z
BECMG 2410/2412 04004MPS 9999 SCT020
BECMG 2418/2420 08002MPS 2100 BR BKN007

Example: see airport list